createdAt,value
2023-06-14T02:00:11.013Z,17.4
2023-06-14T02:20:11.396Z,17.2
2023-06-14T02:40:11.790Z,17
2023-06-14T03:00:12.328Z,16.7
2023-06-14T05:40:15.143Z,18.1
2023-06-14T07:00:16.800Z,20.2
2023-06-14T07:40:17.356Z,21.1
2023-06-14T08:20:18.160Z,22
2023-06-14T08:40:24.753Z,22.6
2023-06-14T09:00:18.976Z,22.7
2023-06-14T09:20:19.472Z,22.6
2023-06-14T09:30:25.494Z,23
2023-06-14T09:40:19.585Z,23.2
2023-06-14T10:10:20.178Z,22.8
2023-06-14T11:00:21.053Z,23.8
2023-06-14T11:20:23.357Z,24
2023-06-14T11:40:21.860Z,24.6
2023-06-14T11:50:24.249Z,24.6
2023-06-14T12:00:22.213Z,25.2
2023-06-14T12:30:22.733Z,25.2
2023-06-14T12:40:22.912Z,25
2023-06-14T12:50:25.536Z,25.1
2023-06-14T13:00:23.298Z,24.4
2023-06-14T13:20:29.752Z,24.4
2023-06-14T13:30:29.944Z,24.3
2023-06-14T16:20:26.985Z,26.6
2023-06-14T16:40:33.454Z,27.5
2023-06-14T17:00:39.944Z,27
2023-06-14T17:20:28.095Z,26.6
2023-06-14T17:40:45.364Z,26.4
2023-06-14T18:00:28.831Z,26.6
2023-06-14T18:10:29.017Z,26.3
2023-06-14T18:40:29.570Z,25.4
2023-06-14T19:00:29.991Z,24.1
2023-06-14T19:20:42.506Z,23.2
2023-06-14T19:40:30.679Z,22.6
2023-06-14T20:20:31.422Z,21.4
2023-06-14T20:40:31.791Z,20.8
2023-06-14T20:50:32.013Z,20.6
2023-06-14T21:00:32.203Z,20.4
2023-06-14T21:10:32.328Z,20.1
2023-06-14T21:20:32.538Z,19.8
2023-06-14T21:30:32.713Z,19.3
2023-06-14T21:40:32.916Z,18.9
2023-06-14T22:00:33.335Z,18.2
2023-06-14T22:20:33.708Z,17.3
2023-06-14T22:30:33.869Z,17.2
2023-06-14T22:40:34.061Z,16.9
2023-06-14T22:50:34.297Z,16.8
2023-06-14T23:00:34.442Z,16.6
2023-06-14T23:10:34.563Z,16.5
2023-06-14T23:30:35.009Z,16.1
2023-06-14T23:40:35.157Z,15.9
2023-06-14T23:50:35.334Z,15.7
